sensor_id;sensor_type;location;lat;lon;timestamp;temperature;humidity
63966;DHT22;50151;52.030;5.350;2023-05-10T00:01:25;13.40;99.90
63966;DHT22;50151;52.030;5.350;2023-05-10T00:03:52;13.40;99.90
63966;DHT22;50151;52.030;5.350;2023-05-10T00:06:18;13.40;99.90
63966;DHT22;50151;52.030;5.350;2023-05-10T00:08:45;13.40;99.90
63966;DHT22;50151;52.030;5.350;2023-05-10T00:11:12;13.40;99.90
63966;DHT22;50151;52.030;5.350;2023-05-10T00:13:39;13.40;99.90
63966;DHT22;50151;52.030;5.350;2023-05-10T00:16:05;13.40;99.90
63966;DHT22;50151;52.030;5.350;2023-05-10T00:18:32;13.40;99.90
63966;DHT22;50151;52.030;5.350;2023-05-10T00:20:59;13.40;99.90
63966;DHT22;50151;52.030;5.350;2023-05-10T00:23:26;13.40;99.90
63966;DHT22;50151;52.030;5.350;2023-05-10T00:25:52;13.40;99.90
63966;DHT22;50151;52.030;5.350;2023-05-10T00:28:19;13.40;99.90
63966;DHT22;50151;52.030;5.350;2023-05-10T00:30:46;13.40;99.90
63966;DHT22;50151;52.030;5.350;2023-05-10T00:33:12;13.40;99.90
63966;DHT22;50151;52.030;5.350;2023-05-10T00:35:39;13.40;99.90
63966;DHT22;50151;52.030;5.350;2023-05-10T00:38:06;13.30;99.90
63966;DHT22;50151;52.030;5.350;2023-05-10T00:40:33;13.30;99.90
63966;DHT22;50151;52.030;5.350;2023-05-10T00:43:02;13.30;99.90
63966;DHT22;50151;52.030;5.350;2023-05-10T00:45:31;13.40;99.90
63966;DHT22;50151;52.030;5.350;2023-05-10T00:48:00;13.40;99.90
63966;DHT22;50151;52.030;5.350;2023-05-10T00:50:28;13.30;99.90
63966;DHT22;50151;52.030;5.350;2023-05-10T00:52:56;13.30;99.90
63966;DHT22;50151;52.030;5.350;2023-05-10T00:55:23;13.40;99.90
63966;DHT22;50151;52.030;5.350;2023-05-10T00:57:49;13.30;99.90
63966;DHT22;50151;52.030;5.350;2023-05-10T01:00:17;13.40;99.90
63966;DHT22;50151;52.030;5.350;2023-05-10T01:02:45;13.40;99.90
63966;DHT22;50151;52.030;5.350;2023-05-10T01:05:13;13.40;99.90
63966;DHT22;50151;52.030;5.350;2023-05-10T01:07:40;13.40;99.90
63966;DHT22;50151;52.030;5.350;2023-05-10T01:10:08;13.30;99.90
63966;DHT22;50151;52.030;5.350;2023-05-10T01:12:37;13.40;99.90
63966;DHT22;50151;52.030;5.350;2023-05-10T01:15:06;13.30;99.90
63966;DHT22;50151;52.030;5.350;2023-05-10T01:17:35;13.40;99.90
63966;DHT22;50151;52.030;5.350;2023-05-10T01:20:02;13.30;99.90
63966;DHT22;50151;52.030;5.350;2023-05-10T01:33:56;13.30;99.90
63966;DHT22;50151;52.030;5.350;2023-05-10T01:36:35;13.40;99.90
63966;DHT22;50151;52.030;5.350;2023-05-10T01:41:54;13.40;99.90
63966;DHT22;50151;52.030;5.350;2023-05-10T01:44:31;13.30;99.90
63966;DHT22;50151;52.030;5.350;2023-05-10T01:47:14;13.30;99.90
63966;DHT22;50151;52.030;5.350;2023-05-10T01:49:45;13.40;99.90
63966;DHT22;50151;52.030;5.350;2023-05-10T01:52:16;13.30;99.90
63966;DHT22;50151;52.030;5.350;2023-05-10T01:54:55;13.30;99.90
63966;DHT22;50151;52.030;5.350;2023-05-10T01:57:29;13.30;99.90
63966;DHT22;50151;52.030;5.350;2023-05-10T01:59:59;13.20;99.90
63966;DHT22;50151;52.030;5.350;2023-05-10T02:02:27;13.20;99.90
63966;DHT22;50151;52.030;5.350;2023-05-10T02:04:54;13.10;99.90
63966;DHT22;50151;52.030;5.350;2023-05-10T02:07:23;13.10;99.90
63966;DHT22;50151;52.030;5.350;2023-05-10T02:09:51;13.10;99.90
63966;DHT22;50151;52.030;5.350;2023-05-10T02:12:18;13.10;99.90
63966;DHT22;50151;52.030;5.350;2023-05-10T02:14:46;13.10;99.90
63966;DHT22;50151;52.030;5.350;2023-05-10T02:17:14;13.10;99.90
63966;DHT22;50151;52.030;5.350;2023-05-10T02:19:41;13.10;99.90
63966;DHT22;50151;52.030;5.350;2023-05-10T02:22:09;13.00;99.90
63966;DHT22;50151;52.030;5.350;2023-05-10T02:24:37;13.00;99.90
63966;DHT22;50151;52.030;5.350;2023-05-10T02:27:05;13.00;99.90
63966;DHT22;50151;52.030;5.350;2023-05-10T02:29:32;13.00;99.90
63966;DHT22;50151;52.030;5.350;2023-05-10T02:32:00;13.00;99.90
63966;DHT22;50151;52.030;5.350;2023-05-10T02:34:28;13.00;99.90
63966;DHT22;50151;52.030;5.350;2023-05-10T02:36:55;12.90;99.90
63966;DHT22;50151;52.030;5.350;2023-05-10T02:39:23;12.90;99.90
63966;DHT22;50151;52.030;5.350;2023-05-10T02:41:52;12.80;99.90
63966;DHT22;50151;52.030;5.350;2023-05-10T02:44:20;12.70;99.90
63966;DHT22;50151;52.030;5.350;2023-05-10T02:46:47;12.70;99.90
63966;DHT22;50151;52.030;5.350;2023-05-10T02:49:15;12.70;99.90
63966;DHT22;50151;52.030;5.350;2023-05-10T02:51:46;12.70;99.90
63966;DHT22;50151;52.030;5.350;2023-05-10T02:54:19;12.80;99.90
63966;DHT22;50151;52.030;5.350;2023-05-10T02:56:53;12.80;99.90
63966;DHT22;50151;52.030;5.350;2023-05-10T02:59:23;12.70;99.90
63966;DHT22;50151;52.030;5.350;2023-05-10T03:01:49;12.70;99.90
63966;DHT22;50151;52.030;5.350;2023-05-10T03:04:16;12.80;99.90
63966;DHT22;50151;52.030;5.350;2023-05-10T03:06:43;12.80;99.90
63966;DHT22;50151;52.030;5.350;2023-05-10T03:09:10;12.70;99.90
63966;DHT22;50151;52.030;5.350;2023-05-10T03:14:42;12.80;99.90
63966;DHT22;50151;52.030;5.350;2023-05-10T03:20:08;12.80;99.90
63966;DHT22;50151;52.030;5.350;2023-05-10T03:22:38;12.80;99.90
63966;DHT22;50151;52.030;5.350;2023-05-10T03:25:10;12.80;99.90
63966;DHT22;50151;52.030;5.350;2023-05-10T03:27:40;12.80;99.90
63966;DHT22;50151;52.030;5.350;2023-05-10T03:30:09;12.70;99.90
63966;DHT22;50151;52.030;5.350;2023-05-10T03:32:36;12.80;99.90
63966;DHT22;50151;52.030;5.350;2023-05-10T03:35:10;12.80;99.90
63966;DHT22;50151;52.030;5.350;2023-05-10T03:37:38;12.90;99.90
63966;DHT22;50151;52.030;5.350;2023-05-10T03:40:05;12.80;99.90
63966;DHT22;50151;52.030;5.350;2023-05-10T03:42:32;12.90;99.90
63966;DHT22;50151;52.030;5.350;2023-05-10T03:44:59;12.80;99.90
63966;DHT22;50151;52.030;5.350;2023-05-10T03:47:25;12.80;99.90
63966;DHT22;50151;52.030;5.350;2023-05-10T03:49:52;12.80;99.90
63966;DHT22;50151;52.030;5.350;2023-05-10T03:52:21;12.80;99.90
63966;DHT22;50151;52.030;5.350;2023-05-10T03:54:47;12.80;99.90
63966;DHT22;50151;52.030;5.350;2023-05-10T03:57:14;12.80;99.90
63966;DHT22;50151;52.030;5.350;2023-05-10T03:59:41;12.80;99.90
63966;DHT22;50151;52.030;5.350;2023-05-10T04:02:07;12.80;99.90
63966;DHT22;50151;52.030;5.350;2023-05-10T04:04:34;12.70;99.90
63966;DHT22;50151;52.030;5.350;2023-05-10T04:07:01;12.90;99.90
63966;DHT22;50151;52.030;5.350;2023-05-10T04:09:27;12.80;99.90
63966;DHT22;50151;52.030;5.350;2023-05-10T04:11:54;12.80;99.90
63966;DHT22;50151;52.030;5.350;2023-05-10T04:14:21;12.80;99.90
63966;DHT22;50151;52.030;5.350;2023-05-10T04:16:47;12.80;99.90
63966;DHT22;50151;52.030;5.350;2023-05-10T04:19:14;12.80;99.90
63966;DHT22;50151;52.030;5.350;2023-05-10T04:21:41;12.90;99.90
63966;DHT22;50151;52.030;5.350;2023-05-10T04:24:07;12.80;99.90
63966;DHT22;50151;52.030;5.350;2023-05-10T04:26:34;12.80;99.90
63966;DHT22;50151;52.030;5.350;2023-05-10T04:29:01;12.90;99.90
63966;DHT22;50151;52.030;5.350;2023-05-10T04:31:28;12.90;99.90
63966;DHT22;50151;52.030;5.350;2023-05-10T04:33:55;12.90;99.90
63966;DHT22;50151;52.030;5.350;2023-05-10T04:36:22;12.90;99.90
63966;DHT22;50151;52.030;5.350;2023-05-10T04:38:48;12.90;99.90
63966;DHT22;50151;52.030;5.350;2023-05-10T04:41:15;12.80;99.90
63966;DHT22;50151;52.030;5.350;2023-05-10T04:43:42;12.90;99.90
63966;DHT22;50151;52.030;5.350;2023-05-10T04:46:08;12.90;99.90
63966;DHT22;50151;52.030;5.350;2023-05-10T04:48:35;12.90;99.90
63966;DHT22;50151;52.030;5.350;2023-05-10T04:51:02;12.90;99.90
63966;DHT22;50151;52.030;5.350;2023-05-10T04:53:30;12.90;99.90
63966;DHT22;50151;52.030;5.350;2023-05-10T04:55:57;12.90;99.90
63966;DHT22;50151;52.030;5.350;2023-05-10T04:58:24;13.00;99.90
63966;DHT22;50151;52.030;5.350;2023-05-10T05:00:51;13.00;99.90
63966;DHT22;50151;52.030;5.350;2023-05-10T05:03:18;13.00;99.90
63966;DHT22;50151;52.030;5.350;2023-05-10T05:05:45;13.00;99.90
63966;DHT22;50151;52.030;5.350;2023-05-10T05:08:12;12.90;99.90
63966;DHT22;50151;52.030;5.350;2023-05-10T05:10:39;12.90;99.90
63966;DHT22;50151;52.030;5.350;2023-05-10T05:13:06;13.00;99.90
63966;DHT22;50151;52.030;5.350;2023-05-10T05:15:33;12.90;99.90
63966;DHT22;50151;52.030;5.350;2023-05-10T05:18:00;12.90;99.90
63966;DHT22;50151;52.030;5.350;2023-05-10T05:20:26;13.00;99.90
63966;DHT22;50151;52.030;5.350;2023-05-10T05:22:53;13.00;99.90
63966;DHT22;50151;52.030;5.350;2023-05-10T05:25:20;13.00;99.90
63966;DHT22;50151;52.030;5.350;2023-05-10T05:27:46;13.00;99.90
63966;DHT22;50151;52.030;5.350;2023-05-10T05:30:13;13.00;99.90
63966;DHT22;50151;52.030;5.350;2023-05-10T05:32:40;13.10;99.90
63966;DHT22;50151;52.030;5.350;2023-05-10T05:35:07;13.00;99.90
63966;DHT22;50151;52.030;5.350;2023-05-10T05:37:33;12.90;99.90
63966;DHT22;50151;52.030;5.350;2023-05-10T05:40:01;13.00;99.90
63966;DHT22;50151;52.030;5.350;2023-05-10T05:42:28;13.00;99.90
63966;DHT22;50151;52.030;5.350;2023-05-10T05:44:54;13.10;99.90
63966;DHT22;50151;52.030;5.350;2023-05-10T05:47:21;13.00;99.90
63966;DHT22;50151;52.030;5.350;2023-05-10T05:49:48;13.10;99.90
63966;DHT22;50151;52.030;5.350;2023-05-10T05:52:14;13.10;99.90
63966;DHT22;50151;52.030;5.350;2023-05-10T05:54:41;13.10;99.90
63966;DHT22;50151;52.030;5.350;2023-05-10T05:57:08;13.10;99.90
63966;DHT22;50151;52.030;5.350;2023-05-10T05:59:35;13.00;99.90
63966;DHT22;50151;52.030;5.350;2023-05-10T06:02:02;12.90;99.90
63966;DHT22;50151;52.030;5.350;2023-05-10T06:04:28;13.00;99.90
63966;DHT22;50151;52.030;5.350;2023-05-10T06:06:55;13.00;99.90
63966;DHT22;50151;52.030;5.350;2023-05-10T06:09:22;13.00;99.90
63966;DHT22;50151;52.030;5.350;2023-05-10T06:11:50;13.00;99.90
63966;DHT22;50151;52.030;5.350;2023-05-10T06:14:17;12.80;99.90
63966;DHT22;50151;52.030;5.350;2023-05-10T06:16:46;12.90;99.90
63966;DHT22;50151;52.030;5.350;2023-05-10T06:19:13;12.90;99.90
63966;DHT22;50151;52.030;5.350;2023-05-10T06:21:39;12.90;99.90
63966;DHT22;50151;52.030;5.350;2023-05-10T06:24:06;12.90;99.90
63966;DHT22;50151;52.030;5.350;2023-05-10T06:26:33;13.00;99.90
63966;DHT22;50151;52.030;5.350;2023-05-10T06:29:00;13.00;99.90
63966;DHT22;50151;52.030;5.350;2023-05-10T06:31:27;13.00;99.90
63966;DHT22;50151;52.030;5.350;2023-05-10T06:33:54;13.00;99.90
63966;DHT22;50151;52.030;5.350;2023-05-10T06:36:22;12.90;99.90
63966;DHT22;50151;52.030;5.350;2023-05-10T06:38:51;12.90;99.90
63966;DHT22;50151;52.030;5.350;2023-05-10T06:41:17;12.90;99.90
63966;DHT22;50151;52.030;5.350;2023-05-10T06:43:44;12.90;99.90
63966;DHT22;50151;52.030;5.350;2023-05-10T06:46:11;13.00;99.90
63966;DHT22;50151;52.030;5.350;2023-05-10T06:48:37;13.00;99.90
63966;DHT22;50151;52.030;5.350;2023-05-10T06:51:04;13.10;99.90
63966;DHT22;50151;52.030;5.350;2023-05-10T06:53:31;13.10;99.90
63966;DHT22;50151;52.030;5.350;2023-05-10T06:55:57;13.10;99.90
63966;DHT22;50151;52.030;5.350;2023-05-10T06:58:24;13.20;99.90
63966;DHT22;50151;52.030;5.350;2023-05-10T07:00:51;13.10;99.90
63966;DHT22;50151;52.030;5.350;2023-05-10T07:03:17;13.20;99.90
63966;DHT22;50151;52.030;5.350;2023-05-10T07:05:44;13.10;99.90
63966;DHT22;50151;52.030;5.350;2023-05-10T07:08:13;13.30;99.90
63966;DHT22;50151;52.030;5.350;2023-05-10T07:10:40;13.20;99.90
63966;DHT22;50151;52.030;5.350;2023-05-10T07:13:06;13.20;99.90
63966;DHT22;50151;52.030;5.350;2023-05-10T07:15:33;13.20;99.90
63966;DHT22;50151;52.030;5.350;2023-05-10T07:18:00;13.20;99.90
63966;DHT22;50151;52.030;5.350;2023-05-10T07:20:27;13.20;99.90
63966;DHT22;50151;52.030;5.350;2023-05-10T07:22:53;13.10;99.90
63966;DHT22;50151;52.030;5.350;2023-05-10T07:25:20;13.20;99.90
63966;DHT22;50151;52.030;5.350;2023-05-10T07:27:47;13.20;99.90
63966;DHT22;50151;52.030;5.350;2023-05-10T07:30:14;13.20;99.90
63966;DHT22;50151;52.030;5.350;2023-05-10T07:32:41;13.40;99.90
63966;DHT22;50151;52.030;5.350;2023-05-10T07:35:08;13.40;99.90
63966;DHT22;50151;52.030;5.350;2023-05-10T07:37:35;13.40;99.90
63966;DHT22;50151;52.030;5.350;2023-05-10T07:40:02;13.30;99.90
63966;DHT22;50151;52.030;5.350;2023-05-10T07:42:29;13.50;99.90
63966;DHT22;50151;52.030;5.350;2023-05-10T07:44:55;13.50;99.90
63966;DHT22;50151;52.030;5.350;2023-05-10T07:47:22;13.50;99.90
63966;DHT22;50151;52.030;5.350;2023-05-10T07:49:49;13.50;99.90
63966;DHT22;50151;52.030;5.350;2023-05-10T07:52:16;13.60;99.90
63966;DHT22;50151;52.030;5.350;2023-05-10T07:54:43;13.70;99.90
63966;DHT22;50151;52.030;5.350;2023-05-10T07:57:10;13.60;99.90
63966;DHT22;50151;52.030;5.350;2023-05-10T07:59:37;13.50;99.90
63966;DHT22;50151;52.030;5.350;2023-05-10T08:02:04;13.50;99.90
63966;DHT22;50151;52.030;5.350;2023-05-10T08:04:31;13.50;99.90
63966;DHT22;50151;52.030;5.350;2023-05-10T08:06:58;13.60;99.90
63966;DHT22;50151;52.030;5.350;2023-05-10T08:09:24;13.70;99.90
63966;DHT22;50151;52.030;5.350;2023-05-10T08:11:51;13.70;99.90
63966;DHT22;50151;52.030;5.350;2023-05-10T08:14:18;13.70;99.90
63966;DHT22;50151;52.030;5.350;2023-05-10T08:16:44;13.80;99.90
63966;DHT22;50151;52.030;5.350;2023-05-10T08:19:11;13.70;99.90
63966;DHT22;50151;52.030;5.350;2023-05-10T08:21:38;13.70;99.90
63966;DHT22;50151;52.030;5.350;2023-05-10T08:24:10;13.70;99.90
63966;DHT22;50151;52.030;5.350;2023-05-10T08:26:37;13.80;99.90
63966;DHT22;50151;52.030;5.350;2023-05-10T08:29:04;13.90;99.90
63966;DHT22;50151;52.030;5.350;2023-05-10T08:31:31;13.90;99.90
63966;DHT22;50151;52.030;5.350;2023-05-10T08:33:57;14.00;99.90
63966;DHT22;50151;52.030;5.350;2023-05-10T08:36:24;14.00;99.90
63966;DHT22;50151;52.030;5.350;2023-05-10T08:38:51;14.00;99.90
63966;DHT22;50151;52.030;5.350;2023-05-10T08:41:20;13.90;99.90
63966;DHT22;50151;52.030;5.350;2023-05-10T08:43:52;14.00;99.90
63966;DHT22;50151;52.030;5.350;2023-05-10T08:46:20;13.80;99.90
63966;DHT22;50151;52.030;5.350;2023-05-10T08:48:48;13.90;99.90
63966;DHT22;50151;52.030;5.350;2023-05-10T08:51:19;14.10;99.90
63966;DHT22;50151;52.030;5.350;2023-05-10T08:53:48;14.00;99.90
63966;DHT22;50151;52.030;5.350;2023-05-10T08:56:15;14.00;99.90
63966;DHT22;50151;52.030;5.350;2023-05-10T08:58:47;14.00;99.90
63966;DHT22;50151;52.030;5.350;2023-05-10T09:01:14;14.00;99.90
63966;DHT22;50151;52.030;5.350;2023-05-10T09:03:42;14.00;99.90
63966;DHT22;50151;52.030;5.350;2023-05-10T09:06:11;14.10;99.90
63966;DHT22;50151;52.030;5.350;2023-05-10T09:08:41;14.10;99.90
63966;DHT22;50151;52.030;5.350;2023-05-10T09:11:09;14.10;99.90
63966;DHT22;50151;52.030;5.350;2023-05-10T09:13:36;14.20;99.90
63966;DHT22;50151;52.030;5.350;2023-05-10T09:16:04;14.20;99.90
63966;DHT22;50151;52.030;5.350;2023-05-10T09:18:46;14.20;99.90
63966;DHT22;50151;52.030;5.350;2023-05-10T09:21:13;14.20;99.90
63966;DHT22;50151;52.030;5.350;2023-05-10T09:23:43;14.30;99.90
63966;DHT22;50151;52.030;5.350;2023-05-10T09:26:13;14.50;99.90
63966;DHT22;50151;52.030;5.350;2023-05-10T09:31:16;14.70;99.90
63966;DHT22;50151;52.030;5.350;2023-05-10T09:33:44;14.80;99.90
63966;DHT22;50151;52.030;5.350;2023-05-10T09:36:12;14.90;99.90
63966;DHT22;50151;52.030;5.350;2023-05-10T09:41:22;14.90;99.90
63966;DHT22;50151;52.030;5.350;2023-05-10T09:43:49;14.80;99.90
63966;DHT22;50151;52.030;5.350;2023-05-10T09:46:16;14.70;99.90
63966;DHT22;50151;52.030;5.350;2023-05-10T09:48:45;14.80;99.90
63966;DHT22;50151;52.030;5.350;2023-05-10T09:51:19;14.70;99.90
63966;DHT22;50151;52.030;5.350;2023-05-10T09:53:47;14.70;99.90
63966;DHT22;50151;52.030;5.350;2023-05-10T09:56:32;14.80;99.90
63966;DHT22;50151;52.030;5.350;2023-05-10T09:59:03;14.90;99.90
63966;DHT22;50151;52.030;5.350;2023-05-10T10:01:30;14.90;99.90
63966;DHT22;50151;52.030;5.350;2023-05-10T10:03:57;14.80;99.90
63966;DHT22;50151;52.030;5.350;2023-05-10T10:06:25;14.80;99.90
63966;DHT22;50151;52.030;5.350;2023-05-10T10:08:56;15.00;99.90
63966;DHT22;50151;52.030;5.350;2023-05-10T10:11:23;15.20;99.90
63966;DHT22;50151;52.030;5.350;2023-05-10T10:13:50;15.30;99.90
63966;DHT22;50151;52.030;5.350;2023-05-10T10:16:42;15.10;99.90
63966;DHT22;50151;52.030;5.350;2023-05-10T10:19:29;15.10;99.90
63966;DHT22;50151;52.030;5.350;2023-05-10T10:21:56;15.10;99.90
63966;DHT22;50151;52.030;5.350;2023-05-10T10:24:23;15.20;99.90
63966;DHT22;50151;52.030;5.350;2023-05-10T10:26:53;15.20;99.90
63966;DHT22;50151;52.030;5.350;2023-05-10T10:32:09;15.30;99.90
63966;DHT22;50151;52.030;5.350;2023-05-10T10:34:38;15.30;99.90
63966;DHT22;50151;52.030;5.350;2023-05-10T10:37:06;15.20;99.90
63966;DHT22;50151;52.030;5.350;2023-05-10T10:39:33;15.30;99.90
63966;DHT22;50151;52.030;5.350;2023-05-10T10:42:04;15.30;99.90
63966;DHT22;50151;52.030;5.350;2023-05-10T10:49:49;15.10;99.90
63966;DHT22;50151;52.030;5.350;2023-05-10T10:52:25;15.10;99.90
63966;DHT22;50151;52.030;5.350;2023-05-10T10:55:17;15.00;99.90
63966;DHT22;50151;52.030;5.350;2023-05-10T10:57:46;15.20;99.90
63966;DHT22;50151;52.030;5.350;2023-05-10T11:02:58;15.30;99.90
63966;DHT22;50151;52.030;5.350;2023-05-10T11:10:51;15.70;99.90
63966;DHT22;50151;52.030;5.350;2023-05-10T11:13:30;15.80;99.90
63966;DHT22;50151;52.030;5.350;2023-05-10T11:15:57;16.00;99.90
63966;DHT22;50151;52.030;5.350;2023-05-10T11:18:27;16.00;99.90
63966;DHT22;50151;52.030;5.350;2023-05-10T11:23:33;16.00;99.90
63966;DHT22;50151;52.030;5.350;2023-05-10T11:26:14;16.20;99.90
63966;DHT22;50151;52.030;5.350;2023-05-10T11:28:48;16.30;99.90
63966;DHT22;50151;52.030;5.350;2023-05-10T11:31:16;16.50;99.90
63966;DHT22;50151;52.030;5.350;2023-05-10T11:33:44;16.80;99.90
63966;DHT22;50151;52.030;5.350;2023-05-10T11:36:16;17.00;99.90
63966;DHT22;50151;52.030;5.350;2023-05-10T11:38:44;17.30;99.90
63966;DHT22;50151;52.030;5.350;2023-05-10T11:41:11;17.30;99.90
63966;DHT22;50151;52.030;5.350;2023-05-10T11:43:39;17.20;99.90
63966;DHT22;50151;52.030;5.350;2023-05-10T11:46:11;17.20;99.90
63966;DHT22;50151;52.030;5.350;2023-05-10T11:48:39;16.90;99.90
63966;DHT22;50151;52.030;5.350;2023-05-10T11:51:10;16.90;99.90
63966;DHT22;50151;52.030;5.350;2023-05-10T11:53:37;17.00;99.90
63966;DHT22;50151;52.030;5.350;2023-05-10T11:56:08;17.10;99.90
63966;DHT22;50151;52.030;5.350;2023-05-10T11:58:37;17.00;99.90
63966;DHT22;50151;52.030;5.350;2023-05-10T12:01:05;16.90;99.90
63966;DHT22;50151;52.030;5.350;2023-05-10T12:03:33;16.80;99.90
63966;DHT22;50151;52.030;5.350;2023-05-10T12:06:02;16.60;99.90
63966;DHT22;50151;52.030;5.350;2023-05-10T12:08:30;16.60;99.90
63966;DHT22;50151;52.030;5.350;2023-05-10T12:11:08;16.60;99.90
63966;DHT22;50151;52.030;5.350;2023-05-10T12:13:41;16.50;99.90
63966;DHT22;50151;52.030;5.350;2023-05-10T12:16:13;16.60;99.90
63966;DHT22;50151;52.030;5.350;2023-05-10T12:18:40;16.80;99.90
63966;DHT22;50151;52.030;5.350;2023-05-10T12:21:12;16.80;99.90
63966;DHT22;50151;52.030;5.350;2023-05-10T12:23:39;16.80;99.90
63966;DHT22;50151;52.030;5.350;2023-05-10T12:26:06;16.80;99.90
63966;DHT22;50151;52.030;5.350;2023-05-10T12:28:35;16.70;99.90
63966;DHT22;50151;52.030;5.350;2023-05-10T12:31:02;16.60;99.90
63966;DHT22;50151;52.030;5.350;2023-05-10T12:33:37;16.60;99.90
63966;DHT22;50151;52.030;5.350;2023-05-10T12:36:12;16.30;99.90
63966;DHT22;50151;52.030;5.350;2023-05-10T12:38:40;16.10;99.90
63966;DHT22;50151;52.030;5.350;2023-05-10T12:41:10;16.20;99.90
63966;DHT22;50151;52.030;5.350;2023-05-10T12:43:38;16.00;99.90
63966;DHT22;50151;52.030;5.350;2023-05-10T12:46:06;15.90;99.90
63966;DHT22;50151;52.030;5.350;2023-05-10T12:48:34;15.70;99.90
63966;DHT22;50151;52.030;5.350;2023-05-10T12:51:01;15.70;99.90
63966;DHT22;50151;52.030;5.350;2023-05-10T12:53:28;15.50;99.90
63966;DHT22;50151;52.030;5.350;2023-05-10T12:55:55;15.50;99.90
63966;DHT22;50151;52.030;5.350;2023-05-10T12:58:21;15.60;99.90
63966;DHT22;50151;52.030;5.350;2023-05-10T13:01:01;15.30;99.90
63966;DHT22;50151;52.030;5.350;2023-05-10T13:03:28;15.40;99.90
63966;DHT22;50151;52.030;5.350;2023-05-10T13:05:54;15.50;99.90
63966;DHT22;50151;52.030;5.350;2023-05-10T13:08:21;15.60;99.90
63966;DHT22;50151;52.030;5.350;2023-05-10T13:10:48;15.30;99.90
63966;DHT22;50151;52.030;5.350;2023-05-10T13:13:15;15.60;99.90
63966;DHT22;50151;52.030;5.350;2023-05-10T13:15:42;15.60;99.90
63966;DHT22;50151;52.030;5.350;2023-05-10T13:18:08;15.50;99.90
63966;DHT22;50151;52.030;5.350;2023-05-10T13:20:35;15.40;99.90
63966;DHT22;50151;52.030;5.350;2023-05-10T13:23:02;15.20;99.90
63966;DHT22;50151;52.030;5.350;2023-05-10T13:25:29;15.20;99.90
63966;DHT22;50151;52.030;5.350;2023-05-10T13:27:56;15.00;99.90
63966;DHT22;50151;52.030;5.350;2023-05-10T13:30:22;15.10;99.90
63966;DHT22;50151;52.030;5.350;2023-05-10T13:32:50;15.10;99.90
63966;DHT22;50151;52.030;5.350;2023-05-10T13:35:17;15.10;99.90
63966;DHT22;50151;52.030;5.350;2023-05-10T13:37:43;14.80;99.90
63966;DHT22;50151;52.030;5.350;2023-05-10T13:40:10;14.80;99.90
63966;DHT22;50151;52.030;5.350;2023-05-10T13:42:37;14.90;99.90
63966;DHT22;50151;52.030;5.350;2023-05-10T13:45:04;14.80;99.90
63966;DHT22;50151;52.030;5.350;2023-05-10T13:47:31;14.70;99.90
63966;DHT22;50151;52.030;5.350;2023-05-10T13:49:58;14.70;99.90
63966;DHT22;50151;52.030;5.350;2023-05-10T13:52:25;14.70;99.90
63966;DHT22;50151;52.030;5.350;2023-05-10T13:54:52;14.70;99.90
63966;DHT22;50151;52.030;5.350;2023-05-10T13:57:21;14.80;99.90
63966;DHT22;50151;52.030;5.350;2023-05-10T13:59:48;14.90;99.90
63966;DHT22;50151;52.030;5.350;2023-05-10T14:02:15;14.80;99.90
63966;DHT22;50151;52.030;5.350;2023-05-10T14:04:41;14.80;99.90
63966;DHT22;50151;52.030;5.350;2023-05-10T14:07:08;14.80;99.90
63966;DHT22;50151;52.030;5.350;2023-05-10T14:09:35;14.80;99.90
63966;DHT22;50151;52.030;5.350;2023-05-10T14:12:01;14.90;99.90
63966;DHT22;50151;52.030;5.350;2023-05-10T14:14:28;15.00;99.90
63966;DHT22;50151;52.030;5.350;2023-05-10T14:16:55;14.80;99.90
63966;DHT22;50151;52.030;5.350;2023-05-10T14:19:22;14.80;99.90
63966;DHT22;50151;52.030;5.350;2023-05-10T14:21:49;14.90;99.90
63966;DHT22;50151;52.030;5.350;2023-05-10T14:24:16;15.00;99.90
63966;DHT22;50151;52.030;5.350;2023-05-10T14:26:42;15.00;99.90
63966;DHT22;50151;52.030;5.350;2023-05-10T14:29:09;15.00;99.90
63966;DHT22;50151;52.030;5.350;2023-05-10T14:31:38;14.90;99.90
63966;DHT22;50151;52.030;5.350;2023-05-10T14:34:05;15.00;99.90
63966;DHT22;50151;52.030;5.350;2023-05-10T14:36:32;15.10;99.90
63966;DHT22;50151;52.030;5.350;2023-05-10T14:38:59;15.10;99.90
63966;DHT22;50151;52.030;5.350;2023-05-10T14:41:25;15.10;99.90
63966;DHT22;50151;52.030;5.350;2023-05-10T14:43:52;15.20;99.90
63966;DHT22;50151;52.030;5.350;2023-05-10T14:46:19;15.20;99.90
63966;DHT22;50151;52.030;5.350;2023-05-10T14:48:46;15.30;99.90
63966;DHT22;50151;52.030;5.350;2023-05-10T14:51:13;15.40;99.90
63966;DHT22;50151;52.030;5.350;2023-05-10T14:53:39;15.50;99.90
63966;DHT22;50151;52.030;5.350;2023-05-10T14:56:06;15.60;99.90
63966;DHT22;50151;52.030;5.350;2023-05-10T14:58:33;15.60;99.90
63966;DHT22;50151;52.030;5.350;2023-05-10T15:01:00;15.70;99.90
63966;DHT22;50151;52.030;5.350;2023-05-10T15:03:27;15.60;99.90
63966;DHT22;50151;52.030;5.350;2023-05-10T15:05:55;15.60;99.90
63966;DHT22;50151;52.030;5.350;2023-05-10T15:08:24;15.90;99.90
63966;DHT22;50151;52.030;5.350;2023-05-10T15:10:51;16.00;99.90
63966;DHT22;50151;52.030;5.350;2023-05-10T15:13:18;16.40;99.90
63966;DHT22;50151;52.030;5.350;2023-05-10T15:15:44;16.40;99.90
63966;DHT22;50151;52.030;5.350;2023-05-10T15:18:11;16.40;99.90
63966;DHT22;50151;52.030;5.350;2023-05-10T15:20:38;16.40;99.90
63966;DHT22;50151;52.030;5.350;2023-05-10T15:23:04;16.20;99.90
63966;DHT22;50151;52.030;5.350;2023-05-10T15:25:31;16.00;99.90
63966;DHT22;50151;52.030;5.350;2023-05-10T15:28:01;16.00;99.90
63966;DHT22;50151;52.030;5.350;2023-05-10T15:30:29;15.90;99.90
63966;DHT22;50151;52.030;5.350;2023-05-10T15:32:55;16.10;99.90
63966;DHT22;50151;52.030;5.350;2023-05-10T15:35:22;16.20;99.90
63966;DHT22;50151;52.030;5.350;2023-05-10T15:37:49;16.40;99.90
63966;DHT22;50151;52.030;5.350;2023-05-10T15:40:15;16.40;99.90
63966;DHT22;50151;52.030;5.350;2023-05-10T15:42:42;16.30;99.90
63966;DHT22;50151;52.030;5.350;2023-05-10T15:45:10;16.40;99.90
63966;DHT22;50151;52.030;5.350;2023-05-10T15:47:37;16.00;99.90
63966;DHT22;50151;52.030;5.350;2023-05-10T15:50:06;16.00;99.90
63966;DHT22;50151;52.030;5.350;2023-05-10T15:52:34;16.00;99.90
63966;DHT22;50151;52.030;5.350;2023-05-10T15:55:00;16.00;99.90
63966;DHT22;50151;52.030;5.350;2023-05-10T15:57:27;15.90;99.90
63966;DHT22;50151;52.030;5.350;2023-05-10T15:59:54;15.80;99.90
63966;DHT22;50151;52.030;5.350;2023-05-10T16:02:21;15.90;99.90
63966;DHT22;50151;52.030;5.350;2023-05-10T16:04:49;15.90;99.90
63966;DHT22;50151;52.030;5.350;2023-05-10T16:07:15;15.90;99.90
63966;DHT22;50151;52.030;5.350;2023-05-10T16:09:42;15.90;99.90
63966;DHT22;50151;52.030;5.350;2023-05-10T16:12:09;16.00;99.90
63966;DHT22;50151;52.030;5.350;2023-05-10T16:14:36;16.10;99.90
63966;DHT22;50151;52.030;5.350;2023-05-10T16:17:03;16.10;99.90
63966;DHT22;50151;52.030;5.350;2023-05-10T16:19:30;16.10;99.90